Hay, WA (99136)

4:26 PM PDT on September 03, 2015 (GMT -0700)
APRSWXNET | | Change Station
CLOSE
Current Station
Personal Weather Station
Location: Hooper, WA
Elevation: 1641 ft
Nearby Weather Stations

Elev 1641 ft 46.79 °N, 118.21 °W | Updated 29 minutes ago

Partly Cloudy
Partly Cloudy
69 °F
Feels Like 69 °F
N
13
Wind Variable Wind from West
Gusts 17.0 mph

Today
High -- | Low -- °F
--% Chance of Precip.
Yesterday
High -- | Low -- °F
Precip. -- in
6:13 AM 7:27 PM
Waning Gibbous, 66% visible
Pressure 29.95 in
Visibility 10.0 miles
Clouds Mostly Cloudy 7500 ft
Dew Point 35 °F
Humidity 28%
Rainfall in
Snow Depth Not available.
UV 2 out of 12
Pollen 6.80 out of 12
Air Quality Not available.
Flu Activity Not available.
METAR KPUW 032253Z AUTO 26005KT 10SM BKN075 17/01 A2996 RMK AO2 SLP142 T01720011
Pressure 29.95 in
Visibility 10.0 miles
Clouds Mostly Cloudy 7500 ft
Dew Point 35 °F
Humidity 28%
Rainfall in
Snow Depth Not available.
UV 2 out of 12
Pollen 6.80 out of 12
Air Quality Not available.
Flu Activity Not available.
METAR KPUW 032253Z AUTO 26005KT 10SM BKN075 17/01 A2996 RMK AO2 SLP142 T01720011

10-Day Weather Forecast

×

Almanac

Astronomy

Sep. 03, 2015 Rise Set
Actual Time
Civil Twilight
Nautical Twilight
Astronomical Twilight
Moon
Length of Visible Light
Length of Day
Tomorrow will be .
, % of the Moon is Illuminated

Today's Extremes

State Highs State Lows

Community

WunderPhotos

Upload Photos

1,852,060 photos uploaded!

WunderBlogs® & News

Nearby

Air Quality

  Air Quality AQ Index Pollutant
Not available.

Snow Depth

Station Depth Elevation

Earthquake Activity

City Distance Mag. Time & Date
Minimum magnitude displayed is 2.5.

Coastal Water Temperatures

Place Temperature

Stations

Nearby Weather Stations

Station Location Temp. Windchill Dew Point Humidity Wind Precip. Elev Updated Type